sensor_id;sensor_type;location;lat;lon;timestamp;temperature;humidity
11025;DHT22;22890;51.820;8.682;2023-07-29T00:01:26;18.60;99.90
11025;DHT22;22890;51.820;8.682;2023-07-29T00:03:53;18.60;99.90
11025;DHT22;22890;51.820;8.682;2023-07-29T00:06:20;18.50;99.90
11025;DHT22;22890;51.820;8.682;2023-07-29T00:08:47;18.50;99.90
11025;DHT22;22890;51.820;8.682;2023-07-29T00:11:14;18.50;99.90
11025;DHT22;22890;51.820;8.682;2023-07-29T00:13:40;18.50;99.90
11025;DHT22;22890;51.820;8.682;2023-07-29T00:16:07;18.50;99.90
11025;DHT22;22890;51.820;8.682;2023-07-29T00:18:34;18.40;99.90
11025;DHT22;22890;51.820;8.682;2023-07-29T00:21:01;18.40;99.90
11025;DHT22;22890;51.820;8.682;2023-07-29T00:23:27;18.40;99.90
11025;DHT22;22890;51.820;8.682;2023-07-29T00:25:54;18.50;99.90
11025;DHT22;22890;51.820;8.682;2023-07-29T00:28:21;18.40;99.90
11025;DHT22;22890;51.820;8.682;2023-07-29T00:30:49;18.40;99.90
11025;DHT22;22890;51.820;8.682;2023-07-29T00:33:16;18.40;99.90
11025;DHT22;22890;51.820;8.682;2023-07-29T00:35:43;18.40;99.90
11025;DHT22;22890;51.820;8.682;2023-07-29T00:38:09;18.40;99.90
11025;DHT22;22890;51.820;8.682;2023-07-29T00:40:36;18.40;99.90
11025;DHT22;22890;51.820;8.682;2023-07-29T00:43:03;18.40;99.90
11025;DHT22;22890;51.820;8.682;2023-07-29T00:45:32;18.40;99.90
11025;DHT22;22890;51.820;8.682;2023-07-29T00:48:00;18.40;99.90
11025;DHT22;22890;51.820;8.682;2023-07-29T00:50:28;18.40;99.90
11025;DHT22;22890;51.820;8.682;2023-07-29T00:52:59;18.40;99.90
11025;DHT22;22890;51.820;8.682;2023-07-29T00:55:26;18.40;99.90
11025;DHT22;22890;51.820;8.682;2023-07-29T00:57:53;18.40;99.90
11025;DHT22;22890;51.820;8.682;2023-07-29T01:00:22;18.90;99.90
11025;DHT22;22890;51.820;8.682;2023-07-29T01:02:49;18.50;99.90
11025;DHT22;22890;51.820;8.682;2023-07-29T01:05:16;18.50;99.90
11025;DHT22;22890;51.820;8.682;2023-07-29T01:07:55;18.50;99.90
11025;DHT22;22890;51.820;8.682;2023-07-29T01:10:49;18.50;99.90
11025;DHT22;22890;51.820;8.682;2023-07-29T01:13:28;18.50;99.90
11025;DHT22;22890;51.820;8.682;2023-07-29T01:16:14;18.50;99.90
11025;DHT22;22890;51.820;8.682;2023-07-29T01:18:46;18.50;99.90
11025;DHT22;22890;51.820;8.682;2023-07-29T01:21:14;18.50;99.90
11025;DHT22;22890;51.820;8.682;2023-07-29T01:23:42;18.50;99.90
11025;DHT22;22890;51.820;8.682;2023-07-29T01:26:09;18.40;99.90
11025;DHT22;22890;51.820;8.682;2023-07-29T01:28:35;18.50;99.90
11025;DHT22;22890;51.820;8.682;2023-07-29T01:36:57;18.50;99.90
11025;DHT22;22890;51.820;8.682;2023-07-29T01:39:30;18.50;99.90
11025;DHT22;22890;51.820;8.682;2023-07-29T01:41:59;18.50;99.90
11025;DHT22;22890;51.820;8.682;2023-07-29T01:44:27;18.40;99.90
11025;DHT22;22890;51.820;8.682;2023-07-29T01:46:56;18.40;99.90
11025;DHT22;22890;51.820;8.682;2023-07-29T01:49:23;18.40;99.90
11025;DHT22;22890;51.820;8.682;2023-07-29T01:51:49;18.40;99.90
11025;DHT22;22890;51.820;8.682;2023-07-29T01:54:16;18.50;99.90
11025;DHT22;22890;51.820;8.682;2023-07-29T01:56:43;18.50;99.90
11025;DHT22;22890;51.820;8.682;2023-07-29T01:59:10;18.50;99.90
11025;DHT22;22890;51.820;8.682;2023-07-29T02:01:36;18.50;99.90
11025;DHT22;22890;51.820;8.682;2023-07-29T02:04:03;18.50;99.90
11025;DHT22;22890;51.820;8.682;2023-07-29T02:06:30;17.10;99.90
11025;DHT22;22890;51.820;8.682;2023-07-29T02:08:57;18.50;99.90
11025;DHT22;22890;51.820;8.682;2023-07-29T02:11:24;18.40;99.90
11025;DHT22;22890;51.820;8.682;2023-07-29T02:13:55;18.50;99.90
11025;DHT22;22890;51.820;8.682;2023-07-29T02:16:22;18.40;99.90
11025;DHT22;22890;51.820;8.682;2023-07-29T02:18:52;18.40;99.90
11025;DHT22;22890;51.820;8.682;2023-07-29T02:21:21;18.40;99.90
11025;DHT22;22890;51.820;8.682;2023-07-29T02:23:48;18.40;99.90
11025;DHT22;22890;51.820;8.682;2023-07-29T02:26:16;18.40;99.90
11025;DHT22;22890;51.820;8.682;2023-07-29T02:28:43;18.40;99.90
11025;DHT22;22890;51.820;8.682;2023-07-29T02:31:21;18.40;99.90
11025;DHT22;22890;51.820;8.682;2023-07-29T02:33:48;18.40;99.90
11025;DHT22;22890;51.820;8.682;2023-07-29T02:36:17;18.40;99.90
11025;DHT22;22890;51.820;8.682;2023-07-29T02:38:44;18.40;99.90
11025;DHT22;22890;51.820;8.682;2023-07-29T02:41:11;18.60;99.90
11025;DHT22;22890;51.820;8.682;2023-07-29T02:43:49;18.40;99.90
11025;DHT22;22890;51.820;8.682;2023-07-29T02:46:17;18.40;99.90
11025;DHT22;22890;51.820;8.682;2023-07-29T02:48:45;18.40;99.90
11025;DHT22;22890;51.820;8.682;2023-07-29T02:51:11;18.40;99.90
11025;DHT22;22890;51.820;8.682;2023-07-29T02:53:38;18.40;99.90
11025;DHT22;22890;51.820;8.682;2023-07-29T02:56:05;18.40;99.90
11025;DHT22;22890;51.820;8.682;2023-07-29T02:58:36;18.40;99.90
11025;DHT22;22890;51.820;8.682;2023-07-29T03:01:05;18.40;99.90
11025;DHT22;22890;51.820;8.682;2023-07-29T03:03:32;18.40;99.90
11025;DHT22;22890;51.820;8.682;2023-07-29T03:06:07;18.40;99.90
11025;DHT22;22890;51.820;8.682;2023-07-29T03:08:35;18.50;99.90
11025;DHT22;22890;51.820;8.682;2023-07-29T03:11:28;18.50;99.90
11025;DHT22;22890;51.820;8.682;2023-07-29T03:13:55;18.40;99.90
11025;DHT22;22890;51.820;8.682;2023-07-29T03:16:23;18.40;99.90
11025;DHT22;22890;51.820;8.682;2023-07-29T03:18:54;18.50;99.90
11025;DHT22;22890;51.820;8.682;2023-07-29T03:21:20;18.50;99.90
11025;DHT22;22890;51.820;8.682;2023-07-29T03:23:47;18.40;99.90
11025;DHT22;22890;51.820;8.682;2023-07-29T03:26:14;18.40;99.90
11025;DHT22;22890;51.820;8.682;2023-07-29T03:28:42;18.40;99.90
11025;DHT22;22890;51.820;8.682;2023-07-29T03:31:10;18.50;99.90
11025;DHT22;22890;51.820;8.682;2023-07-29T03:33:37;18.50;99.90
11025;DHT22;22890;51.820;8.682;2023-07-29T03:36:04;18.50;99.90
11025;DHT22;22890;51.820;8.682;2023-07-29T03:38:31;18.50;99.90
11025;DHT22;22890;51.820;8.682;2023-07-29T03:40:59;18.50;99.90
11025;DHT22;22890;51.820;8.682;2023-07-29T03:43:26;18.50;99.90
11025;DHT22;22890;51.820;8.682;2023-07-29T03:45:55;18.50;99.90
11025;DHT22;22890;51.820;8.682;2023-07-29T03:48:22;18.50;99.90
11025;DHT22;22890;51.820;8.682;2023-07-29T03:50:49;18.50;99.90
11025;DHT22;22890;51.820;8.682;2023-07-29T03:53:15;18.50;99.90
11025;DHT22;22890;51.820;8.682;2023-07-29T03:55:43;18.50;99.90
11025;DHT22;22890;51.820;8.682;2023-07-29T03:58:10;18.50;99.90
11025;DHT22;22890;51.820;8.682;2023-07-29T04:00:37;18.50;99.90
11025;DHT22;22890;51.820;8.682;2023-07-29T04:03:04;18.50;99.90
11025;DHT22;22890;51.820;8.682;2023-07-29T04:05:32;18.50;99.90
11025;DHT22;22890;51.820;8.682;2023-07-29T04:07:59;18.50;99.90
11025;DHT22;22890;51.820;8.682;2023-07-29T04:10:26;18.60;99.90
11025;DHT22;22890;51.820;8.682;2023-07-29T04:12:52;18.60;99.90
11025;DHT22;22890;51.820;8.682;2023-07-29T04:15:19;18.50;99.90
11025;DHT22;22890;51.820;8.682;2023-07-29T04:17:46;18.50;99.90
11025;DHT22;22890;51.820;8.682;2023-07-29T04:20:13;18.50;99.90
11025;DHT22;22890;51.820;8.682;2023-07-29T04:22:40;18.50;99.90
11025;DHT22;22890;51.820;8.682;2023-07-29T04:25:07;18.50;99.90
11025;DHT22;22890;51.820;8.682;2023-07-29T04:27:34;18.50;99.90
11025;DHT22;22890;51.820;8.682;2023-07-29T04:30:00;18.50;99.90
11025;DHT22;22890;51.820;8.682;2023-07-29T04:32:27;18.50;99.90
11025;DHT22;22890;51.820;8.682;2023-07-29T04:34:54;18.50;99.90
11025;DHT22;22890;51.820;8.682;2023-07-29T04:37:21;18.50;99.90
11025;DHT22;22890;51.820;8.682;2023-07-29T04:39:47;18.50;99.90
11025;DHT22;22890;51.820;8.682;2023-07-29T04:42:14;18.50;99.90
11025;DHT22;22890;51.820;8.682;2023-07-29T04:44:41;18.50;99.90
11025;DHT22;22890;51.820;8.682;2023-07-29T04:47:09;18.60;99.90
11025;DHT22;22890;51.820;8.682;2023-07-29T04:49:36;18.50;99.90
11025;DHT22;22890;51.820;8.682;2023-07-29T04:52:02;18.60;99.90
11025;DHT22;22890;51.820;8.682;2023-07-29T04:54:29;18.60;99.90
11025;DHT22;22890;51.820;8.682;2023-07-29T04:56:56;18.60;99.90
11025;DHT22;22890;51.820;8.682;2023-07-29T04:59:23;18.60;99.90
11025;DHT22;22890;51.820;8.682;2023-07-29T05:01:51;18.60;99.90
11025;DHT22;22890;51.820;8.682;2023-07-29T05:04:20;18.60;99.90
11025;DHT22;22890;51.820;8.682;2023-07-29T05:06:47;18.60;99.90
11025;DHT22;22890;51.820;8.682;2023-07-29T05:09:15;18.60;99.90
11025;DHT22;22890;51.820;8.682;2023-07-29T05:11:43;18.60;99.90
11025;DHT22;22890;51.820;8.682;2023-07-29T05:14:13;18.60;99.90
11025;DHT22;22890;51.820;8.682;2023-07-29T05:16:41;18.70;99.90
11025;DHT22;22890;51.820;8.682;2023-07-29T05:19:08;18.70;99.90
11025;DHT22;22890;51.820;8.682;2023-07-29T05:21:36;18.70;99.90
11025;DHT22;22890;51.820;8.682;2023-07-29T05:24:03;18.70;99.90
11025;DHT22;22890;51.820;8.682;2023-07-29T05:26:31;18.80;99.90
11025;DHT22;22890;51.820;8.682;2023-07-29T05:28:57;18.80;99.90
11025;DHT22;22890;51.820;8.682;2023-07-29T05:31:24;18.80;99.90
11025;DHT22;22890;51.820;8.682;2023-07-29T05:33:51;18.80;99.90
11025;DHT22;22890;51.820;8.682;2023-07-29T05:36:18;18.80;99.90
11025;DHT22;22890;51.820;8.682;2023-07-29T05:38:45;18.90;99.90
11025;DHT22;22890;51.820;8.682;2023-07-29T05:41:12;18.90;99.90
11025;DHT22;22890;51.820;8.682;2023-07-29T05:43:39;19.00;99.90
11025;DHT22;22890;51.820;8.682;2023-07-29T05:46:06;19.00;99.90
11025;DHT22;22890;51.820;8.682;2023-07-29T05:48:33;19.20;99.90
11025;DHT22;22890;51.820;8.682;2023-07-29T05:51:02;19.10;99.90
11025;DHT22;22890;51.820;8.682;2023-07-29T05:53:29;19.10;99.90
11025;DHT22;22890;51.820;8.682;2023-07-29T05:55:55;19.10;99.90
11025;DHT22;22890;51.820;8.682;2023-07-29T05:58:22;19.10;99.90
11025;DHT22;22890;51.820;8.682;2023-07-29T06:00:50;19.10;99.90
11025;DHT22;22890;51.820;8.682;2023-07-29T06:03:18;19.10;99.90
11025;DHT22;22890;51.820;8.682;2023-07-29T06:05:45;19.20;99.90
11025;DHT22;22890;51.820;8.682;2023-07-29T06:08:12;19.20;99.90
11025;DHT22;22890;51.820;8.682;2023-07-29T06:10:38;19.20;99.90
11025;DHT22;22890;51.820;8.682;2023-07-29T06:13:05;19.20;99.90
11025;DHT22;22890;51.820;8.682;2023-07-29T06:15:32;19.20;99.90
11025;DHT22;22890;51.820;8.682;2023-07-29T06:17:59;19.30;99.90
11025;DHT22;22890;51.820;8.682;2023-07-29T06:20:26;19.20;99.90
11025;DHT22;22890;51.820;8.682;2023-07-29T06:22:53;19.30;99.90
11025;DHT22;22890;51.820;8.682;2023-07-29T06:25:20;19.40;99.90
11025;DHT22;22890;51.820;8.682;2023-07-29T06:27:47;19.30;99.90
11025;DHT22;22890;51.820;8.682;2023-07-29T06:30:14;19.40;99.90
11025;DHT22;22890;51.820;8.682;2023-07-29T06:32:40;19.40;99.90
11025;DHT22;22890;51.820;8.682;2023-07-29T06:35:07;19.40;99.90
11025;DHT22;22890;51.820;8.682;2023-07-29T06:37:34;19.40;99.90
11025;DHT22;22890;51.820;8.682;2023-07-29T06:40:01;19.40;99.90
11025;DHT22;22890;51.820;8.682;2023-07-29T06:42:27;19.40;99.90
11025;DHT22;22890;51.820;8.682;2023-07-29T06:44:54;19.40;99.90
11025;DHT22;22890;51.820;8.682;2023-07-29T06:47:21;19.40;99.90
11025;DHT22;22890;51.820;8.682;2023-07-29T06:49:48;19.40;99.90
11025;DHT22;22890;51.820;8.682;2023-07-29T06:52:14;19.50;99.90
11025;DHT22;22890;51.820;8.682;2023-07-29T06:54:41;19.50;99.90
11025;DHT22;22890;51.820;8.682;2023-07-29T06:57:08;19.50;99.90
11025;DHT22;22890;51.820;8.682;2023-07-29T06:59:35;19.50;99.90
11025;DHT22;22890;51.820;8.682;2023-07-29T07:02:02;19.60;99.90
11025;DHT22;22890;51.820;8.682;2023-07-29T07:04:29;19.60;99.90
11025;DHT22;22890;51.820;8.682;2023-07-29T07:06:56;19.60;99.90
11025;DHT22;22890;51.820;8.682;2023-07-29T07:09:22;19.60;99.90
11025;DHT22;22890;51.820;8.682;2023-07-29T07:11:49;19.60;99.90
11025;DHT22;22890;51.820;8.682;2023-07-29T07:14:16;19.60;99.90
11025;DHT22;22890;51.820;8.682;2023-07-29T07:16:42;19.60;99.90
11025;DHT22;22890;51.820;8.682;2023-07-29T07:19:09;19.60;99.90
11025;DHT22;22890;51.820;8.682;2023-07-29T07:21:36;19.60;99.90
11025;DHT22;22890;51.820;8.682;2023-07-29T07:24:03;19.60;99.90
11025;DHT22;22890;51.820;8.682;2023-07-29T07:26:29;19.50;99.90
11025;DHT22;22890;51.820;8.682;2023-07-29T07:28:56;19.60;99.90
11025;DHT22;22890;51.820;8.682;2023-07-29T07:31:23;18.80;99.90
11025;DHT22;22890;51.820;8.682;2023-07-29T07:33:50;19.60;99.90
11025;DHT22;22890;51.820;8.682;2023-07-29T07:36:16;19.60;99.90
11025;DHT22;22890;51.820;8.682;2023-07-29T07:38:43;21.20;99.90
11025;DHT22;22890;51.820;8.682;2023-07-29T07:41:10;19.60;99.90
11025;DHT22;22890;51.820;8.682;2023-07-29T07:43:38;19.70;99.90
11025;DHT22;22890;51.820;8.682;2023-07-29T07:46:05;19.80;99.90
11025;DHT22;22890;51.820;8.682;2023-07-29T07:48:32;19.80;99.90
11025;DHT22;22890;51.820;8.682;2023-07-29T07:50:59;19.80;99.90
11025;DHT22;22890;51.820;8.682;2023-07-29T07:53:26;19.90;99.90
11025;DHT22;22890;51.820;8.682;2023-07-29T07:55:53;19.90;99.90
11025;DHT22;22890;51.820;8.682;2023-07-29T07:58:20;19.90;99.90
11025;DHT22;22890;51.820;8.682;2023-07-29T08:00:47;19.90;99.90
11025;DHT22;22890;51.820;8.682;2023-07-29T08:03:13;19.90;99.90
11025;DHT22;22890;51.820;8.682;2023-07-29T08:05:40;19.90;99.90
11025;DHT22;22890;51.820;8.682;2023-07-29T08:08:07;20.00;99.90
11025;DHT22;22890;51.820;8.682;2023-07-29T08:10:33;18.40;99.90
11025;DHT22;22890;51.820;8.682;2023-07-29T08:13:00;20.10;99.90
11025;DHT22;22890;51.820;8.682;2023-07-29T08:15:27;20.20;99.90
11025;DHT22;22890;51.820;8.682;2023-07-29T08:17:54;20.20;99.90
11025;DHT22;22890;51.820;8.682;2023-07-29T08:20:21;20.20;99.90
11025;DHT22;22890;51.820;8.682;2023-07-29T08:22:48;20.10;99.90
11025;DHT22;22890;51.820;8.682;2023-07-29T08:25:14;20.10;99.90
11025;DHT22;22890;51.820;8.682;2023-07-29T08:27:41;20.10;99.90
11025;DHT22;22890;51.820;8.682;2023-07-29T08:30:08;20.10;99.90
11025;DHT22;22890;51.820;8.682;2023-07-29T08:32:35;20.20;99.90
11025;DHT22;22890;51.820;8.682;2023-07-29T08:35:02;20.20;99.90
11025;DHT22;22890;51.820;8.682;2023-07-29T08:37:29;20.30;99.90
11025;DHT22;22890;51.820;8.682;2023-07-29T08:39:56;20.30;99.90
11025;DHT22;22890;51.820;8.682;2023-07-29T08:42:23;20.40;99.90
11025;DHT22;22890;51.820;8.682;2023-07-29T08:44:54;20.50;99.90
11025;DHT22;22890;51.820;8.682;2023-07-29T08:47:22;20.60;99.90
11025;DHT22;22890;51.820;8.682;2023-07-29T08:49:50;20.60;99.90
11025;DHT22;22890;51.820;8.682;2023-07-29T08:52:18;20.60;99.90
11025;DHT22;22890;51.820;8.682;2023-07-29T08:54:46;20.60;99.90
11025;DHT22;22890;51.820;8.682;2023-07-29T08:57:13;20.50;99.90
11025;DHT22;22890;51.820;8.682;2023-07-29T08:59:40;20.50;99.90
11025;DHT22;22890;51.820;8.682;2023-07-29T09:02:07;20.50;99.90
11025;DHT22;22890;51.820;8.682;2023-07-29T09:04:35;20.60;99.90
11025;DHT22;22890;51.820;8.682;2023-07-29T09:07:01;20.60;99.90
11025;DHT22;22890;51.820;8.682;2023-07-29T09:09:29;20.70;99.90
11025;DHT22;22890;51.820;8.682;2023-07-29T09:11:56;20.80;99.90
11025;DHT22;22890;51.820;8.682;2023-07-29T09:14:23;20.80;99.90
11025;DHT22;22890;51.820;8.682;2023-07-29T09:16:50;20.90;99.90
11025;DHT22;22890;51.820;8.682;2023-07-29T09:19:17;20.90;99.90
11025;DHT22;22890;51.820;8.682;2023-07-29T09:21:47;20.90;99.90
11025;DHT22;22890;51.820;8.682;2023-07-29T09:24:16;20.90;99.90
11025;DHT22;22890;51.820;8.682;2023-07-29T09:26:51;21.00;99.90
11025;DHT22;22890;51.820;8.682;2023-07-29T09:29:23;21.10;99.90
11025;DHT22;22890;51.820;8.682;2023-07-29T09:31:50;21.10;99.90
11025;DHT22;22890;51.820;8.682;2023-07-29T09:34:17;21.20;99.90
11025;DHT22;22890;51.820;8.682;2023-07-29T09:36:44;21.30;99.90
11025;DHT22;22890;51.820;8.682;2023-07-29T09:39:12;21.30;99.90
11025;DHT22;22890;51.820;8.682;2023-07-29T09:41:39;21.30;99.90
11025;DHT22;22890;51.820;8.682;2023-07-29T09:44:07;21.40;99.90
11025;DHT22;22890;51.820;8.682;2023-07-29T09:46:37;21.50;99.90
11025;DHT22;22890;51.820;8.682;2023-07-29T09:49:07;21.50;99.90
11025;DHT22;22890;51.820;8.682;2023-07-29T09:51:40;21.50;99.90
11025;DHT22;22890;51.820;8.682;2023-07-29T09:54:07;21.50;99.90
11025;DHT22;22890;51.820;8.682;2023-07-29T09:56:39;21.60;99.90
11025;DHT22;22890;51.820;8.682;2023-07-29T09:59:08;21.60;99.90
11025;DHT22;22890;51.820;8.682;2023-07-29T10:01:36;21.70;99.90
11025;DHT22;22890;51.820;8.682;2023-07-29T10:04:04;21.70;99.90
11025;DHT22;22890;51.820;8.682;2023-07-29T10:06:34;21.80;99.90
11025;DHT22;22890;51.820;8.682;2023-07-29T10:09:02;21.90;99.90
11025;DHT22;22890;51.820;8.682;2023-07-29T10:11:29;21.90;99.90
11025;DHT22;22890;51.820;8.682;2023-07-29T10:13:57;21.90;99.90
11025;DHT22;22890;51.820;8.682;2023-07-29T10:16:37;22.00;99.90
11025;DHT22;22890;51.820;8.682;2023-07-29T10:19:07;22.00;99.90
11025;DHT22;22890;51.820;8.682;2023-07-29T10:21:39;22.10;99.90
11025;DHT22;22890;51.820;8.682;2023-07-29T10:24:11;22.10;99.90
11025;DHT22;22890;51.820;8.682;2023-07-29T10:26:45;22.20;99.90
11025;DHT22;22890;51.820;8.682;2023-07-29T10:29:14;22.20;99.90
11025;DHT22;22890;51.820;8.682;2023-07-29T10:31:43;22.40;99.90
11025;DHT22;22890;51.820;8.682;2023-07-29T10:34:11;22.50;99.90
11025;DHT22;22890;51.820;8.682;2023-07-29T10:36:39;22.60;99.90
11025;DHT22;22890;51.820;8.682;2023-07-29T10:39:07;22.60;99.90
11025;DHT22;22890;51.820;8.682;2023-07-29T10:42:01;22.60;99.90
11025;DHT22;22890;51.820;8.682;2023-07-29T10:49:51;22.70;99.90
11025;DHT22;22890;51.820;8.682;2023-07-29T10:52:39;22.70;99.90
11025;DHT22;22890;51.820;8.682;2023-07-29T10:57:50;22.70;99.90
11025;DHT22;22890;51.820;8.682;2023-07-29T11:00:19;22.70;99.90
11025;DHT22;22890;51.820;8.682;2023-07-29T11:03:00;22.70;99.90
11025;DHT22;22890;51.820;8.682;2023-07-29T11:05:42;22.60;99.90
11025;DHT22;22890;51.820;8.682;2023-07-29T11:08:28;22.60;99.90
11025;DHT22;22890;51.820;8.682;2023-07-29T11:11:06;22.70;99.90
11025;DHT22;22890;51.820;8.682;2023-07-29T11:13:37;22.70;99.90
11025;DHT22;22890;51.820;8.682;2023-07-29T11:16:05;22.70;99.90
11025;DHT22;22890;51.820;8.682;2023-07-29T11:18:34;22.80;99.90
11025;DHT22;22890;51.820;8.682;2023-07-29T11:21:02;22.80;99.90
11025;DHT22;22890;51.820;8.682;2023-07-29T11:23:32;22.80;99.90
11025;DHT22;22890;51.820;8.682;2023-07-29T11:25:59;22.80;99.90
11025;DHT22;22890;51.820;8.682;2023-07-29T11:28:26;22.80;99.90
11025;DHT22;22890;51.820;8.682;2023-07-29T11:30:55;22.70;99.90
11025;DHT22;22890;51.820;8.682;2023-07-29T11:33:26;22.70;99.90
11025;DHT22;22890;51.820;8.682;2023-07-29T11:35:55;22.70;99.90
11025;DHT22;22890;51.820;8.682;2023-07-29T11:38:22;22.70;99.90
11025;DHT22;22890;51.820;8.682;2023-07-29T11:41:00;22.90;99.90
11025;DHT22;22890;51.820;8.682;2023-07-29T11:43:29;23.00;99.90
11025;DHT22;22890;51.820;8.682;2023-07-29T11:45:56;23.10;99.90
11025;DHT22;22890;51.820;8.682;2023-07-29T11:48:30;23.20;99.90
11025;DHT22;22890;51.820;8.682;2023-07-29T11:50:57;23.20;99.90
11025;DHT22;22890;51.820;8.682;2023-07-29T11:53:27;23.30;99.90
11025;DHT22;22890;51.820;8.682;2023-07-29T11:55:54;23.30;99.90
11025;DHT22;22890;51.820;8.682;2023-07-29T11:58:21;23.40;99.90
11025;DHT22;22890;51.820;8.682;2023-07-29T12:00:48;23.40;99.90
11025;DHT22;22890;51.820;8.682;2023-07-29T12:03:16;23.40;99.90
11025;DHT22;22890;51.820;8.682;2023-07-29T12:05:45;23.50;99.90
11025;DHT22;22890;51.820;8.682;2023-07-29T12:08:12;23.60;99.90
11025;DHT22;22890;51.820;8.682;2023-07-29T12:10:39;23.60;99.90
11025;DHT22;22890;51.820;8.682;2023-07-29T12:13:08;23.70;99.90
11025;DHT22;22890;51.820;8.682;2023-07-29T12:15:34;23.80;99.90
11025;DHT22;22890;51.820;8.682;2023-07-29T12:18:04;23.80;99.90
11025;DHT22;22890;51.820;8.682;2023-07-29T12:20:31;23.80;99.90
11025;DHT22;22890;51.820;8.682;2023-07-29T12:22:59;23.70;99.90
11025;DHT22;22890;51.820;8.682;2023-07-29T12:25:32;23.70;99.90
11025;DHT22;22890;51.820;8.682;2023-07-29T12:28:03;25.10;99.90
11025;DHT22;22890;51.820;8.682;2023-07-29T12:30:30;23.70;99.90
11025;DHT22;22890;51.820;8.682;2023-07-29T12:32:57;23.80;99.90
11025;DHT22;22890;51.820;8.682;2023-07-29T12:35:25;23.90;99.90
11025;DHT22;22890;51.820;8.682;2023-07-29T12:38:00;23.90;99.90
11025;DHT22;22890;51.820;8.682;2023-07-29T12:40:27;23.90;99.90
11025;DHT22;22890;51.820;8.682;2023-07-29T12:42:54;23.70;99.90
11025;DHT22;22890;51.820;8.682;2023-07-29T12:45:21;23.80;99.90
11025;DHT22;22890;51.820;8.682;2023-07-29T12:47:50;23.70;99.90
11025;DHT22;22890;51.820;8.682;2023-07-29T12:50:17;23.70;99.90
11025;DHT22;22890;51.820;8.682;2023-07-29T12:52:44;23.70;99.90
11025;DHT22;22890;51.820;8.682;2023-07-29T12:55:11;23.80;99.90
11025;DHT22;22890;51.820;8.682;2023-07-29T12:57:41;23.80;99.90
11025;DHT22;22890;51.820;8.682;2023-07-29T13:00:09;23.80;99.90
11025;DHT22;22890;51.820;8.682;2023-07-29T13:02:36;23.80;99.90
11025;DHT22;22890;51.820;8.682;2023-07-29T13:05:04;23.90;99.90
11025;DHT22;22890;51.820;8.682;2023-07-29T13:07:30;23.70;99.90
11025;DHT22;22890;51.820;8.682;2023-07-29T13:09:57;23.80;99.90
11025;DHT22;22890;51.820;8.682;2023-07-29T13:12:24;23.90;99.90
11025;DHT22;22890;51.820;8.682;2023-07-29T13:14:50;24.00;99.90
11025;DHT22;22890;51.820;8.682;2023-07-29T13:17:17;24.00;99.90
11025;DHT22;22890;51.820;8.682;2023-07-29T13:19:44;24.00;99.90
11025;DHT22;22890;51.820;8.682;2023-07-29T13:22:11;24.10;99.90
11025;DHT22;22890;51.820;8.682;2023-07-29T13:24:38;24.20;99.90
11025;DHT22;22890;51.820;8.682;2023-07-29T13:27:05;24.20;99.90
11025;DHT22;22890;51.820;8.682;2023-07-29T13:29:31;24.20;99.90
11025;DHT22;22890;51.820;8.682;2023-07-29T13:31:58;24.10;99.90
11025;DHT22;22890;51.820;8.682;2023-07-29T13:34:25;24.10;99.90
11025;DHT22;22890;51.820;8.682;2023-07-29T13:36:52;24.00;99.90
11025;DHT22;22890;51.820;8.682;2023-07-29T13:39:19;24.00;99.90
11025;DHT22;22890;51.820;8.682;2023-07-29T13:41:46;24.00;99.90
11025;DHT22;22890;51.820;8.682;2023-07-29T13:44:13;24.00;99.90
11025;DHT22;22890;51.820;8.682;2023-07-29T13:46:39;24.10;99.90
11025;DHT22;22890;51.820;8.682;2023-07-29T13:49:06;24.00;99.90
11025;DHT22;22890;51.820;8.682;2023-07-29T13:51:33;24.00;99.90
11025;DHT22;22890;51.820;8.682;2023-07-29T13:54:00;24.00;99.90
11025;DHT22;22890;51.820;8.682;2023-07-29T13:56:27;23.90;99.90
11025;DHT22;22890;51.820;8.682;2023-07-29T13:58:53;23.90;99.90
11025;DHT22;22890;51.820;8.682;2023-07-29T14:01:20;23.90;99.90
11025;DHT22;22890;51.820;8.682;2023-07-29T14:03:47;23.90;99.90
11025;DHT22;22890;51.820;8.682;2023-07-29T14:06:14;23.90;99.90
11025;DHT22;22890;51.820;8.682;2023-07-29T14:08:40;23.70;99.90
11025;DHT22;22890;51.820;8.682;2023-07-29T14:11:08;23.40;99.90
11025;DHT22;22890;51.820;8.682;2023-07-29T14:13:35;23.10;99.90
11025;DHT22;22890;51.820;8.682;2023-07-29T14:16:02;22.70;99.90
11025;DHT22;22890;51.820;8.682;2023-07-29T14:18:30;22.50;99.90
11025;DHT22;22890;51.820;8.682;2023-07-29T14:20:56;22.30;99.90
11025;DHT22;22890;51.820;8.682;2023-07-29T14:23:23;22.10;99.90
11025;DHT22;22890;51.820;8.682;2023-07-29T14:25:50;21.90;99.90
11025;DHT22;22890;51.820;8.682;2023-07-29T14:28:17;21.50;99.90
11025;DHT22;22890;51.820;8.682;2023-07-29T14:30:43;21.20;99.90
11025;DHT22;22890;51.820;8.682;2023-07-29T14:33:10;21.10;99.90
11025;DHT22;22890;51.820;8.682;2023-07-29T14:35:37;21.10;99.90
11025;DHT22;22890;51.820;8.682;2023-07-29T14:38:04;21.20;99.90
11025;DHT22;22890;51.820;8.682;2023-07-29T14:40:30;21.20;99.90
11025;DHT22;22890;51.820;8.682;2023-07-29T14:42:57;21.30;99.90
11025;DHT22;22890;51.820;8.682;2023-07-29T14:45:24;21.40;99.90
11025;DHT22;22890;51.820;8.682;2023-07-29T14:47:51;21.60;99.90
11025;DHT22;22890;51.820;8.682;2023-07-29T14:50:18;21.60;99.90
11025;DHT22;22890;51.820;8.682;2023-07-29T14:52:45;21.70;99.90
11025;DHT22;22890;51.820;8.682;2023-07-29T14:55:11;21.80;99.90
11025;DHT22;22890;51.820;8.682;2023-07-29T14:57:38;21.90;99.90
11025;DHT22;22890;51.820;8.682;2023-07-29T15:00:07;22.00;99.90
11025;DHT22;22890;51.820;8.682;2023-07-29T15:02:35;22.00;99.90
11025;DHT22;22890;51.820;8.682;2023-07-29T15:05:02;22.10;99.90
11025;DHT22;22890;51.820;8.682;2023-07-29T15:07:28;22.10;99.90
11025;DHT22;22890;51.820;8.682;2023-07-29T15:09:55;22.10;99.90
11025;DHT22;22890;51.820;8.682;2023-07-29T15:12:22;22.10;99.90
11025;DHT22;22890;51.820;8.682;2023-07-29T15:14:49;22.20;99.90
11025;DHT22;22890;51.820;8.682;2023-07-29T15:17:16;22.30;99.90
11025;DHT22;22890;51.820;8.682;2023-07-29T15:19:42;22.30;99.90
11025;DHT22;22890;51.820;8.682;2023-07-29T15:22:09;22.30;99.90
11025;DHT22;22890;51.820;8.682;2023-07-29T15:24:36;22.30;99.90
11025;DHT22;22890;51.820;8.682;2023-07-29T15:27:05;22.20;99.90
11025;DHT22;22890;51.820;8.682;2023-07-29T15:29:32;22.10;99.90
11025;DHT22;22890;51.820;8.682;2023-07-29T15:31:59;22.10;99.90
11025;DHT22;22890;51.820;8.682;2023-07-29T15:34:26;22.00;99.90
11025;DHT22;22890;51.820;8.682;2023-07-29T15:36:53;22.00;99.90
11025;DHT22;22890;51.820;8.682;2023-07-29T15:39:19;21.90;99.90
11025;DHT22;22890;51.820;8.682;2023-07-29T15:41:46;21.80;99.90
11025;DHT22;22890;51.820;8.682;2023-07-29T15:44:13;21.80;99.90
11025;DHT22;22890;51.820;8.682;2023-07-29T15:46:39;21.60;99.90
11025;DHT22;22890;51.820;8.682;2023-07-29T15:49:07;21.30;99.90